createdAt,value
2019-01-05T00:00:59.275Z,7.48
2019-01-05T00:07:35.577Z,7.53
2019-01-05T00:10:32.698Z,7.54
2019-01-05T00:13:28.090Z,7.55
2019-01-05T00:16:36.040Z,7.55
2019-01-05T00:19:44.125Z,7.55
2019-01-05T00:26:00.798Z,7.60
2019-01-05T00:28:49.565Z,7.61
2019-01-05T00:31:59.029Z,7.60
2019-01-05T00:38:08.723Z,7.63
2019-01-05T00:41:18.623Z,7.63
2019-01-05T00:47:30.807Z,7.64
2019-01-05T01:05:31.594Z,7.75
2019-01-05T01:15:01.194Z,7.73
2019-01-05T01:21:20.176Z,7.80
2019-01-05T01:27:18.434Z,7.88
2019-01-05T01:30:28.596Z,7.89
2019-01-05T01:33:31.746Z,7.88
2019-01-05T01:36:20.274Z,7.96
2019-01-05T01:42:11.599Z,7.96
2019-01-05T01:45:21.267Z,7.96
2019-01-05T01:48:09.746Z,7.95
2019-01-05T01:51:19.725Z,7.96
2019-01-05T01:57:37.699Z,7.98
2019-01-05T02:00:47.435Z,8.00
2019-01-05T02:09:49.752Z,8.05
2019-01-05T02:15:59.802Z,8.10
2019-01-05T02:19:00.464Z,8.07
2019-01-05T02:22:27.915Z,8.07
2019-01-05T02:25:56.589Z,8.10
2019-01-05T02:29:06.055Z,8.11
2019-01-05T02:32:34.733Z,8.09
2019-01-05T02:35:44.428Z,8.11
2019-01-05T02:38:53.898Z,8.12
2019-01-05T02:41:58.774Z,8.14
2019-01-05T02:44:42.260Z,8.15
2019-01-05T02:47:28.936Z,8.15
2019-01-05T02:50:12.112Z,8.14
2019-01-05T02:56:21.848Z,8.17
2019-01-05T03:02:39.731Z,8.24
2019-01-05T03:12:26.106Z,8.34
2019-01-05T03:15:53.369Z,8.37
2019-01-05T03:22:57.640Z,8.42
2019-01-05T03:29:27.442Z,8.45
2019-01-05T03:35:38.835Z,8.49
2019-01-05T03:38:39.632Z,8.49
2019-01-05T03:42:06.838Z,8.49
2019-01-05T03:48:39.462Z,8.49
2019-01-05T03:51:49.184Z,8.51
2019-01-05T03:55:16.426Z,8.48
2019-01-05T03:58:43.933Z,8.48
2019-01-05T04:02:11.667Z,8.51
2019-01-05T04:05:21.055Z,8.51
2019-01-05T04:08:48.547Z,8.51
2019-01-05T04:11:58.269Z,8.50
2019-01-05T04:14:58.731Z,8.54
2019-01-05T04:18:08.297Z,8.54
2019-01-05T04:21:35.776Z,8.53
2019-01-05T04:25:02.985Z,8.52
2019-01-05T04:28:30.514Z,8.49
2019-01-05T04:31:57.691Z,8.49
2019-01-05T04:40:51.512Z,8.52
2019-01-05T04:44:18.770Z,8.51
2019-01-05T04:57:23.116Z,8.56
2019-01-05T05:03:58.031Z,8.56
2019-01-05T05:07:07.696Z,8.56
2019-01-05T05:10:35.020Z,8.58
2019-01-05T05:17:25.898Z,8.57
2019-01-05T05:23:37.277Z,8.61
2019-01-05T05:26:38.448Z,8.60
2019-01-05T05:29:47.839Z,8.60
2019-01-05T05:32:57.573Z,8.63
2019-01-05T05:36:24.779Z,8.65
2019-01-05T05:39:51.978Z,8.65
2019-01-05T05:43:19.192Z,8.71
2019-01-05T05:46:46.395Z,8.69
2019-01-05T05:50:13.960Z,8.69
2019-01-05T05:59:25.798Z,8.66
2019-01-05T06:02:11.117Z,8.67
2019-01-05T06:05:38.899Z,8.67
2019-01-05T06:08:48.579Z,8.68
2019-01-05T06:12:15.776Z,8.70
2019-01-05T06:15:43.039Z,8.70
2019-01-05T06:18:54.016Z,8.68
2019-01-05T06:22:21.208Z,8.68
2019-01-05T06:25:30.899Z,8.67
2019-01-05T06:28:58.181Z,8.71
2019-01-05T06:32:07.870Z,8.70
2019-01-05T06:35:17.533Z,8.73
2019-01-05T06:48:11.876Z,8.72
2019-01-05T06:51:39.146Z,8.74
2019-01-05T07:04:47.878Z,8.69
2019-01-05T07:07:57.278Z,8.70
2019-01-05T07:11:06.960Z,8.72
2019-01-05T07:14:35.607Z,8.69
2019-01-05T07:20:47.829Z,8.76
2019-01-05T07:27:19.899Z,8.79
2019-01-05T07:30:47.380Z,8.78
2019-01-05T07:33:57.103Z,8.77
2019-01-05T07:37:06.791Z,8.72
2019-01-05T07:40:35.732Z,8.70
2019-01-05T07:44:03.250Z,8.70
2019-01-05T07:47:30.439Z,8.72
2019-01-05T07:54:08.583Z,8.64
2019-01-05T07:57:35.767Z,8.64
2019-01-05T08:01:03.282Z,8.72
2019-01-05T08:19:37.758Z,8.76
2019-01-05T08:25:49.962Z,8.77
2019-01-05T08:28:59.664Z,8.77
2019-01-05T08:32:26.860Z,8.77
2019-01-05T08:35:36.882Z,8.77
2019-01-05T08:42:37.355Z,8.78
2019-01-05T08:45:47.314Z,8.79
2019-01-05T08:49:14.510Z,8.74
2019-01-05T08:55:43.922Z,8.72
2019-01-05T08:58:53.652Z,8.73
2019-01-05T09:02:20.918Z,8.77
2019-01-05T09:05:30.380Z,8.79
2019-01-05T09:12:32.078Z,8.76
2019-01-05T09:19:36.226Z,8.80
2019-01-05T09:23:03.713Z,8.82
2019-01-05T09:26:30.915Z,8.85
2019-01-05T09:29:40.858Z,8.92
2019-01-05T09:32:43.267Z,8.93
2019-01-05T09:35:27.116Z,8.91
2019-01-05T09:38:37.792Z,8.91
2019-01-05T09:44:26.738Z,8.96
2019-01-05T09:47:36.551Z,8.96
2019-01-05T09:51:04.013Z,9.00
2019-01-05T09:54:15.278Z,9.04
2019-01-05T10:00:46.421Z,9.09
2019-01-05T10:07:16.281Z,9.13
2019-01-05T10:10:25.982Z,9.15
2019-01-05T10:13:53.192Z,9.11
2019-01-05T10:23:57.140Z,9.09
2019-01-05T10:27:06.837Z,9.09
2019-01-05T10:30:16.547Z,9.08
2019-01-05T10:43:20.506Z,9.16
2019-01-05T10:46:48.024Z,9.23
2019-01-05T10:49:57.560Z,9.23
2019-01-05T11:02:53.934Z,9.20
2019-01-05T11:09:05.811Z,9.24
2019-01-05T11:12:33.004Z,9.27
2019-01-05T11:15:42.407Z,9.28
2019-01-05T11:22:31.149Z,9.30
2019-01-05T11:25:40.914Z,9.29
2019-01-05T11:29:08.127Z,9.33
2019-01-05T11:32:18.635Z,9.32
2019-01-05T11:35:46.051Z,9.37
2019-01-05T11:42:18.645Z,9.34
2019-01-05T11:45:01.796Z,9.38
2019-01-05T11:47:46.165Z,9.43
2019-01-05T11:50:55.823Z,9.43
2019-01-05T11:57:44.058Z,9.41
2019-01-05T12:04:13.250Z,9.44
2019-01-05T12:07:22.705Z,9.46
2019-01-05T12:13:54.512Z,9.47
2019-01-05T12:20:19.019Z,9.46
2019-01-05T12:23:46.258Z,9.47
2019-01-05T12:26:55.660Z,9.51
2019-01-05T12:30:23.536Z,9.49
2019-01-05T12:33:33.281Z,9.49
2019-01-05T12:36:42.997Z,9.50
2019-01-05T12:40:10.191Z,9.53
2019-01-05T12:43:20.017Z,9.57
2019-01-05T12:46:31.696Z,9.46
2019-01-05T12:49:17.887Z,9.50
2019-01-05T12:52:27.837Z,9.50
2019-01-05T12:55:55.274Z,9.50
2019-01-05T12:58:38.370Z,9.52
2019-01-05T13:01:24.959Z,9.50
2019-01-05T13:04:34.694Z,9.49
2019-01-05T13:08:02.914Z,9.48
2019-01-05T13:11:13.051Z,9.46
2019-01-05T13:20:38.785Z,9.47
2019-01-05T13:24:07.834Z,9.44
2019-01-05T13:30:38.780Z,9.52
2019-01-05T13:33:41.104Z,9.47
2019-01-05T13:37:08.544Z,9.47
2019-01-05T13:40:19.235Z,9.46
2019-01-05T13:43:28.804Z,9.44
2019-01-05T13:50:30.453Z,9.51
2019-01-05T13:53:40.077Z,9.53
2019-01-05T13:59:55.614Z,9.47
2019-01-05T14:02:44.153Z,9.47
2019-01-05T14:11:28.181Z,9.40
2019-01-05T14:16:58.090Z,9.36
2019-01-05T14:28:25.347Z,9.47
2019-01-05T14:31:13.950Z,9.45
2019-01-05T14:34:02.754Z,9.43
2019-01-05T14:39:57.739Z,9.39
2019-01-05T14:42:46.191Z,9.39
2019-01-05T14:45:34.774Z,9.40
2019-01-05T14:54:19.849Z,9.41
2019-01-05T14:57:08.358Z,9.42
2019-01-05T14:59:58.171Z,9.38
2019-01-05T15:05:42.729Z,9.35
2019-01-05T15:08:31.203Z,9.34
2019-01-05T15:11:39.179Z,9.31
2019-01-05T15:14:27.877Z,9.31
2019-01-05T15:20:12.449Z,9.24
2019-01-05T15:23:01.256Z,9.27
2019-01-05T15:26:02.145Z,9.28
2019-01-05T15:28:50.947Z,9.28
2019-01-05T15:31:39.463Z,9.28
2019-01-05T15:34:27.998Z,9.24
2019-01-05T15:37:16.790Z,9.24
2019-01-05T15:40:05.288Z,9.24
2019-01-05T15:42:53.957Z,9.25
2019-01-05T15:45:42.423Z,9.26
2019-01-05T15:48:30.911Z,9.20
2019-01-05T15:51:38.738Z,9.20
2019-01-05T15:57:08.187Z,9.25
2019-01-05T15:59:58.251Z,9.22
2019-01-05T16:02:47.024Z,9.26
2019-01-05T16:05:35.490Z,9.24
2019-01-05T16:08:24.046Z,9.22
2019-01-05T16:11:12.528Z,9.23
2019-01-05T16:14:01.250Z,9.23
2019-01-05T16:16:47.547Z,9.19
2019-01-05T16:19:36.017Z,9.19
2019-01-05T16:22:24.487Z,9.20
2019-01-05T16:25:13.465Z,9.22
2019-01-05T16:28:02.288Z,9.24
2019-01-05T16:30:51.312Z,9.26
2019-01-05T16:33:40.076Z,9.25
2019-01-05T16:36:28.547Z,9.22
2019-01-05T16:39:17.175Z,9.22
2019-01-05T16:42:05.953Z,9.24
2019-01-05T16:44:54.416Z,9.25
2019-01-05T16:47:43.054Z,9.24
2019-01-05T16:50:31.508Z,9.18
2019-01-05T16:53:20.083Z,9.18
2019-01-05T16:56:08.577Z,9.19
2019-01-05T16:58:58.378Z,9.18
2019-01-05T17:04:42.835Z,9.13
2019-01-05T17:07:31.317Z,9.12
2019-01-05T17:10:19.787Z,9.12
2019-01-05T17:13:27.668Z,9.08
2019-01-05T17:16:16.233Z,9.08
2019-01-05T17:19:04.958Z,9.10
2019-01-05T17:21:53.437Z,9.06
2019-01-05T18:42:50.508Z,8.94
2019-01-05T18:45:40.155Z,8.93
2019-01-05T18:48:28.622Z,8.94
2019-01-05T18:51:17.349Z,8.96
2019-01-05T18:54:06.215Z,8.99
2019-01-05T18:56:54.665Z,8.95
2019-01-05T18:59:43.581Z,8.96
2019-01-05T19:02:32.046Z,8.96
2019-01-05T20:23:39.219Z,8.77
2019-01-05T20:26:27.724Z,8.77
2019-01-05T20:29:16.175Z,8.80
2019-01-05T20:32:05.007Z,8.82
2019-01-05T21:43:34.097Z,8.89
2019-01-05T21:49:13.146Z,8.85
2019-01-05T21:52:02.003Z,8.85
2019-01-05T21:54:50.465Z,8.86
2019-01-05T22:00:23.633Z,8.83
2019-01-05T22:03:12.244Z,8.82
2019-01-05T22:06:01.014Z,8.82
2019-01-05T22:14:34.018Z,8.84
2019-01-05T22:17:22.749Z,8.85
2019-01-05T22:20:11.540Z,8.82
2019-01-05T22:23:00.341Z,8.80
2019-01-05T22:25:49.060Z,8.79
2019-01-05T22:28:37.569Z,8.81
2019-01-05T22:31:26.102Z,8.82
2019-01-05T22:34:14.905Z,8.82
2019-01-05T22:37:03.366Z,8.83
2019-01-05T22:39:46.930Z,8.82
2019-01-05T22:42:35.392Z,8.82
2019-01-05T22:45:43.464Z,8.83
2019-01-05T22:54:02.760Z,8.83
2019-01-05T22:59:47.187Z,8.76
2019-01-05T23:05:31.235Z,8.76
2019-01-05T23:11:00.363Z,8.80
2019-01-05T23:14:10.275Z,8.84
2019-01-05T23:16:59.508Z,8.85
2019-01-05T23:19:42.755Z,8.79
2019-01-05T23:22:33.121Z,8.79
2019-01-05T23:25:46.500Z,8.82
2019-01-05T23:28:48.194Z,8.82
2019-01-05T23:34:32.274Z,8.81
2019-01-05T23:37:21.090Z,8.84
2019-01-05T23:40:09.576Z,8.84
2019-01-05T23:42:59.444Z,8.88
2019-01-05T23:45:48.222Z,8.90
2019-01-05T23:48:36.680Z,8.88
2019-01-05T23:51:23.251Z,8.89
2019-01-05T23:54:12.313Z,8.89
2019-01-05T23:57:01.088Z,8.85
2019-01-05T23:59:49.569Z,8.85
